createdAt,value
2018-06-19T00:01:43.193Z,86.60
2018-06-19T00:04:11.417Z,86.50
2018-06-19T00:06:39.629Z,87.10
2018-06-19T00:09:08.691Z,87.10
2018-06-19T00:11:36.931Z,87.20
2018-06-19T00:14:05.220Z,87.20
2018-06-19T00:16:33.757Z,87.00
2018-06-19T00:19:02.505Z,87.30
2018-06-19T00:21:36.061Z,87.60
2018-06-19T00:24:04.314Z,87.60
2018-06-19T00:26:32.574Z,87.70
2018-06-19T00:29:01.113Z,87.50
2018-06-19T00:31:29.380Z,87.70
2018-06-19T00:33:57.648Z,87.90
2018-06-19T00:36:25.877Z,88.40
2018-06-19T00:38:54.245Z,88.00
2018-06-19T00:41:22.435Z,87.90
2018-06-19T00:43:50.674Z,88.40
2018-06-19T00:46:20.729Z,88.50
2018-06-19T00:48:48.949Z,89.00
2018-06-19T00:51:17.652Z,89.60
2018-06-19T00:53:45.858Z,89.70
2018-06-19T00:56:56.584Z,89.70
2018-06-19T00:59:24.915Z,89.20
2018-06-19T01:01:54.010Z,89.30
2018-06-19T01:04:22.193Z,88.90
2018-06-19T01:06:50.507Z,88.50
2018-06-19T01:09:18.781Z,89.20
2018-06-19T01:11:47.001Z,89.70
2018-06-19T01:14:15.241Z,89.70
2018-06-19T01:16:43.417Z,89.20
2018-06-19T01:19:11.677Z,88.20
2018-06-19T01:21:39.937Z,88.60
2018-06-19T01:24:08.198Z,88.70
2018-06-19T01:26:36.417Z,88.60
2018-06-19T01:29:04.612Z,88.50
2018-06-19T01:31:32.880Z,88.30
2018-06-19T01:34:01.074Z,88.50
2018-06-19T01:36:29.292Z,88.40
2018-06-19T01:38:57.496Z,88.90
2018-06-19T01:41:25.710Z,88.70
2018-06-19T01:43:54.314Z,89.20
2018-06-19T01:46:22.505Z,90.00
2018-06-19T01:48:50.748Z,90.10
2018-06-19T01:51:18.950Z,89.60
2018-06-19T01:53:47.174Z,89.40
2018-06-19T01:56:15.386Z,89.00
2018-06-19T01:58:43.634Z,88.60
2018-06-19T02:01:11.837Z,89.30
2018-06-19T02:03:40.051Z,89.00
2018-06-19T02:06:08.324Z,89.00
2018-06-19T02:08:36.577Z,89.50
2018-06-19T02:11:04.853Z,90.10
2018-06-19T02:13:33.026Z,89.40
2018-06-19T02:16:01.321Z,89.50
2018-06-19T02:18:29.567Z,89.50
2018-06-19T02:20:57.877Z,91.30
2018-06-19T02:23:26.146Z,91.70
2018-06-19T02:25:54.349Z,91.50
2018-06-19T02:28:22.544Z,91.90
2018-06-19T02:30:50.741Z,91.10
2018-06-19T02:33:19.071Z,91.20
2018-06-19T02:35:47.608Z,90.80
2018-06-19T02:38:15.878Z,90.10
2018-06-19T02:40:44.170Z,90.40
2018-06-19T02:43:12.733Z,90.60
2018-06-19T02:45:41.005Z,91.20
2018-06-19T02:48:09.230Z,92.00
2018-06-19T02:53:05.635Z,92.40
2018-06-19T02:55:33.925Z,92.80
2018-06-19T02:58:02.160Z,93.10
2018-06-19T03:00:30.351Z,93.00
2018-06-19T03:02:58.621Z,92.30
2018-06-19T03:05:26.820Z,92.00
2018-06-19T03:07:55.037Z,91.40
2018-06-19T03:10:23.232Z,91.40
2018-06-19T03:12:51.419Z,90.60
2018-06-19T03:15:19.636Z,90.90
2018-06-19T03:17:47.812Z,91.40
2018-06-19T03:20:16.068Z,90.90
2018-06-19T03:22:44.693Z,90.40
2018-06-19T03:25:12.928Z,90.90
2018-06-19T03:27:41.177Z,91.50
2018-06-19T03:30:09.444Z,91.50
2018-06-19T03:32:37.689Z,91.50
2018-06-19T03:35:05.901Z,91.00
2018-06-19T03:37:34.149Z,91.80
2018-06-19T03:40:02.432Z,92.10
2018-06-19T03:42:31.409Z,92.60
2018-06-19T03:44:59.641Z,92.70
2018-06-19T03:47:27.889Z,92.40
2018-06-19T03:49:56.116Z,92.60
2018-06-19T03:52:24.297Z,92.70
2018-06-19T03:54:52.517Z,92.70
2018-06-19T03:57:20.693Z,93.20
2018-06-19T03:59:48.907Z,93.00
2018-06-19T04:02:17.112Z,92.80
2018-06-19T04:04:45.350Z,93.30
2018-06-19T04:07:17.900Z,93.00
2018-06-19T04:09:46.109Z,92.80
2018-06-19T04:12:14.345Z,92.70
2018-06-19T04:14:42.811Z,92.40
2018-06-19T04:17:19.488Z,92.00
2018-06-19T04:19:47.870Z,91.50
2018-06-19T04:22:17.736Z,91.10
2018-06-19T04:24:46.019Z,90.60
2018-06-19T04:27:14.257Z,90.60
2018-06-19T04:29:42.670Z,90.60
2018-06-19T04:32:10.896Z,90.60
2018-06-19T04:34:39.122Z,90.60
2018-06-19T04:37:07.364Z,90.40
2018-06-19T04:39:35.528Z,90.50
2018-06-19T04:42:03.832Z,90.30
2018-06-19T04:44:32.097Z,90.10
2018-06-19T04:47:00.354Z,90.80
2018-06-19T04:49:28.599Z,91.40
2018-06-19T04:51:56.839Z,91.40
2018-06-19T04:54:25.084Z,91.20
2018-06-19T04:56:53.305Z,91.40
2018-06-19T04:59:21.560Z,91.10
2018-06-19T05:01:49.863Z,90.60
2018-06-19T05:04:18.113Z,90.60
2018-06-19T05:06:46.296Z,90.80
2018-06-19T05:09:14.857Z,90.80
2018-06-19T05:11:44.539Z,90.70
2018-06-19T05:14:12.789Z,90.50
2018-06-19T05:16:41.705Z,90.20
2018-06-19T05:19:10.130Z,90.70
2018-06-19T05:21:38.462Z,90.40
2018-06-19T05:24:06.670Z,90.60
2018-06-19T05:26:34.949Z,90.20
2018-06-19T05:29:03.181Z,91.00
2018-06-19T05:31:31.613Z,90.70
2018-06-19T05:34:00.096Z,90.00
2018-06-19T05:36:28.275Z,89.90
2018-06-19T05:38:56.494Z,89.20
2018-06-19T05:41:24.661Z,87.90
2018-06-19T05:43:52.885Z,88.30
2018-06-19T05:46:21.136Z,88.00
2018-06-19T05:48:49.341Z,87.30
2018-06-19T05:51:17.605Z,87.20
2018-06-19T05:53:45.885Z,86.50
2018-06-19T05:56:14.158Z,86.20
2018-06-19T05:58:42.389Z,85.80
2018-06-19T06:01:10.597Z,84.70
2018-06-19T06:03:38.858Z,84.10
2018-06-19T06:06:07.126Z,83.40
2018-06-19T06:08:35.447Z,81.70
2018-06-19T06:11:03.769Z,79.30
2018-06-19T06:13:32.009Z,76.50
2018-06-19T06:16:00.242Z,75.00
2018-06-19T06:18:28.513Z,76.20
2018-06-19T06:20:56.771Z,74.30
2018-06-19T06:23:24.992Z,73.70
2018-06-19T06:25:53.230Z,71.50
2018-06-19T06:28:21.442Z,71.70
2018-06-19T06:30:49.691Z,70.70
2018-06-19T06:33:17.939Z,71.20
2018-06-19T06:35:46.238Z,71.90
2018-06-19T06:38:14.447Z,71.70
2018-06-19T06:40:42.861Z,72.00
2018-06-19T06:43:11.115Z,72.30
2018-06-19T06:45:39.315Z,73.00
2018-06-19T06:48:07.581Z,72.40
2018-06-19T06:50:35.823Z,70.70
2018-06-19T06:53:04.083Z,68.90
2018-06-19T06:55:32.315Z,68.90
2018-06-19T06:58:00.613Z,68.40
2018-06-19T07:00:28.893Z,67.60
2018-06-19T07:02:57.097Z,67.80
2018-06-19T07:05:25.378Z,68.10
2018-06-19T07:07:53.611Z,66.60
2018-06-19T07:10:21.887Z,67.00
2018-06-19T07:12:50.113Z,67.20
2018-06-19T07:15:18.355Z,68.10
2018-06-19T07:17:46.669Z,65.70
2018-06-19T07:20:14.986Z,66.60
2018-06-19T07:22:43.306Z,66.40
2018-06-19T07:25:11.530Z,66.10
2018-06-19T07:27:39.811Z,64.60
2018-06-19T07:30:08.026Z,66.50
2018-06-19T07:32:36.286Z,64.80
2018-06-19T07:35:04.540Z,65.40
2018-06-19T07:37:32.750Z,65.30
2018-06-19T07:40:01.018Z,66.00
2018-06-19T07:42:29.219Z,63.70
2018-06-19T07:44:57.437Z,65.00
2018-06-19T07:47:25.645Z,64.30
2018-06-19T07:49:53.882Z,66.30
2018-06-19T07:52:22.129Z,64.10
2018-06-19T07:54:50.331Z,64.30
2018-06-19T07:57:18.643Z,64.30
2018-06-19T07:59:46.852Z,64.70
2018-06-19T08:02:15.122Z,64.60
2018-06-19T08:04:43.434Z,65.00
2018-06-19T08:07:11.694Z,65.60
2018-06-19T08:09:40.523Z,65.70
2018-06-19T08:12:08.736Z,65.30
2018-06-19T08:14:37.299Z,63.50
2018-06-19T08:17:05.485Z,64.60
2018-06-19T08:19:33.714Z,62.70
2018-06-19T08:22:02.005Z,64.10
2018-06-19T08:24:30.334Z,64.20
2018-06-19T08:26:58.604Z,65.20
2018-06-19T08:29:26.812Z,63.60
2018-06-19T08:31:55.058Z,64.20
2018-06-19T08:34:23.319Z,64.30
2018-06-19T08:36:51.560Z,65.20
2018-06-19T08:39:19.743Z,64.60
2018-06-19T08:41:48.055Z,63.20
2018-06-19T08:44:16.307Z,63.00
2018-06-19T08:46:44.525Z,60.50
2018-06-19T08:49:13.205Z,61.20
2018-06-19T08:51:41.417Z,60.60
2018-06-19T08:54:09.684Z,62.60
2018-06-19T08:56:37.874Z,65.00
2018-06-19T08:59:06.102Z,61.10
2018-06-19T09:01:34.661Z,61.70
2018-06-19T09:04:03.310Z,61.90
2018-06-19T09:06:31.677Z,61.30
2018-06-19T09:08:59.903Z,60.90
2018-06-19T09:11:28.145Z,62.40
2018-06-19T09:13:56.340Z,62.40
2018-06-19T09:16:24.597Z,63.40
2018-06-19T09:18:52.841Z,63.90
2018-06-19T09:21:21.059Z,62.10
2018-06-19T09:23:49.879Z,63.10
2018-06-19T09:26:18.177Z,65.00
2018-06-19T09:28:46.424Z,64.10
2018-06-19T09:31:14.722Z,61.80
2018-06-19T09:33:42.983Z,64.10
2018-06-19T09:36:11.269Z,63.30
2018-06-19T09:38:39.541Z,64.30
2018-06-19T09:41:07.967Z,63.60
2018-06-19T09:43:36.167Z,59.90
2018-06-19T09:46:04.547Z,61.10
2018-06-19T09:48:32.756Z,61.40
2018-06-19T09:51:01.001Z,61.10
2018-06-19T09:53:29.369Z,60.80
2018-06-19T09:55:57.801Z,58.10
2018-06-19T10:00:54.791Z,59.60
2018-06-19T10:03:23.398Z,61.80
2018-06-19T10:05:51.624Z,60.50
2018-06-19T10:08:19.925Z,62.80
2018-06-19T10:10:48.180Z,63.10
2018-06-19T10:13:16.395Z,63.80
2018-06-19T10:15:44.705Z,61.90
2018-06-19T10:18:12.908Z,60.80
2018-06-19T10:20:41.170Z,62.30
2018-06-19T10:23:09.384Z,61.70
2018-06-19T10:25:37.672Z,61.80
2018-06-19T10:28:06.050Z,61.20
2018-06-19T10:30:34.289Z,60.70
2018-06-19T10:33:02.550Z,61.20
2018-06-19T10:35:30.811Z,61.30
2018-06-19T10:37:59.024Z,62.50
2018-06-19T10:40:27.289Z,61.00
2018-06-19T10:42:55.527Z,61.30
2018-06-19T10:45:23.809Z,61.10
2018-06-19T10:47:51.985Z,59.50
2018-06-19T10:50:20.209Z,60.40
2018-06-19T10:52:48.418Z,59.10
2018-06-19T10:55:16.690Z,59.80
2018-06-19T10:57:44.924Z,60.40
2018-06-19T11:00:13.166Z,60.00
2018-06-19T11:02:41.418Z,61.00
2018-06-19T11:05:09.709Z,60.80
2018-06-19T11:07:37.954Z,59.70
2018-06-19T11:10:06.205Z,59.30
2018-06-19T11:12:34.477Z,59.80
2018-06-19T11:15:02.678Z,61.50
2018-06-19T11:17:30.916Z,62.10
2018-06-19T11:19:59.710Z,61.60
2018-06-19T11:22:27.990Z,62.40
2018-06-19T11:24:56.233Z,63.50
2018-06-19T11:27:24.413Z,62.80
2018-06-19T11:29:52.750Z,62.80
2018-06-19T11:32:20.950Z,65.20
2018-06-19T11:34:49.264Z,62.80
2018-06-19T11:37:17.509Z,64.70
2018-06-19T11:39:45.730Z,62.80
2018-06-19T11:42:14.020Z,65.10
2018-06-19T11:44:42.242Z,64.70
2018-06-19T11:47:10.564Z,64.40
2018-06-19T11:49:38.838Z,65.00
2018-06-19T11:52:07.134Z,63.50
2018-06-19T11:54:35.417Z,63.30
2018-06-19T11:57:03.658Z,64.00
2018-06-19T11:59:32.201Z,65.30
2018-06-19T12:02:00.603Z,64.60
2018-06-19T12:04:28.860Z,64.60
2018-06-19T12:06:57.096Z,66.60
2018-06-19T12:09:25.362Z,66.20
2018-06-19T12:11:53.604Z,66.00
2018-06-19T12:14:21.845Z,66.30
2018-06-19T12:16:50.125Z,65.40
2018-06-19T12:19:18.378Z,65.20
2018-06-19T12:21:46.613Z,63.70
2018-06-19T12:24:14.900Z,63.80
2018-06-19T12:26:43.205Z,64.40
2018-06-19T12:29:11.490Z,65.40
2018-06-19T12:31:39.762Z,63.00
2018-06-19T12:34:08.064Z,64.10
2018-06-19T12:36:36.383Z,63.80
2018-06-19T12:39:07.320Z,64.10
2018-06-19T12:41:47.544Z,64.40
2018-06-19T12:44:15.813Z,62.90
2018-06-19T12:46:44.157Z,61.80
2018-06-19T12:49:12.426Z,62.50
2018-06-19T12:51:59.149Z,61.80
2018-06-19T12:55:38.400Z,61.10
2018-06-19T12:58:07.538Z,60.50
2018-06-19T13:00:35.826Z,60.30
2018-06-19T13:03:15.065Z,60.80
2018-06-19T13:05:54.425Z,59.80
2018-06-19T13:08:22.714Z,60.10
2018-06-19T13:10:50.965Z,60.90
2018-06-19T13:13:31.369Z,63.00
2018-06-19T13:15:59.713Z,63.30
2018-06-19T13:18:40.421Z,61.70
2018-06-19T13:21:08.791Z,62.30
2018-06-19T13:23:37.096Z,60.20
2018-06-19T13:26:05.336Z,61.70
2018-06-19T13:29:49.241Z,62.00
2018-06-19T13:32:17.566Z,63.40
2018-06-19T13:34:46.028Z,60.50
2018-06-19T13:37:14.569Z,60.90
2018-06-19T13:39:43.276Z,61.60
2018-06-19T13:42:22.954Z,60.30
2018-06-19T13:44:59.882Z,58.10
2018-06-19T13:47:28.114Z,59.50
2018-06-19T13:49:56.365Z,59.70
2018-06-19T13:52:24.553Z,58.40
2018-06-19T13:54:52.948Z,57.50
2018-06-19T13:57:35.919Z,59.40
2018-06-19T14:00:07.176Z,58.20
2018-06-19T14:02:35.438Z,58.40
2018-06-19T14:05:04.382Z,57.10
2018-06-19T14:08:04.787Z,57.90
2018-06-19T14:10:43.971Z,58.10
2018-06-19T14:13:12.377Z,57.50
2018-06-19T14:15:44.665Z,57.70
2018-06-19T14:18:13.705Z,57.40
2018-06-19T14:20:42.568Z,57.30
2018-06-19T14:23:11.143Z,59.10
2018-06-19T14:25:39.357Z,57.90
2018-06-19T14:28:07.593Z,58.90
2018-06-19T14:30:35.942Z,57.70
2018-06-19T14:33:04.243Z,57.80
2018-06-19T14:35:32.546Z,57.10
2018-06-19T14:38:00.801Z,58.00
2018-06-19T14:40:29.090Z,57.60
2018-06-19T14:42:57.328Z,58.40
2018-06-19T14:45:25.727Z,59.30
2018-06-19T14:47:53.964Z,58.60
2018-06-19T14:50:22.219Z,58.90
2018-06-19T14:52:50.444Z,58.90
2018-06-19T14:55:18.699Z,59.30
2018-06-19T14:57:46.901Z,59.50
2018-06-19T15:00:15.208Z,61.50
2018-06-19T15:02:43.433Z,61.20
2018-06-19T15:05:11.747Z,60.70
2018-06-19T15:07:47.336Z,59.60
2018-06-19T15:10:15.918Z,60.30
2018-06-19T15:12:44.198Z,60.30
2018-06-19T15:15:12.553Z,59.00
2018-06-19T15:17:40.880Z,60.10
2018-06-19T15:20:09.107Z,60.10
2018-06-19T15:22:37.393Z,62.00
2018-06-19T15:25:05.671Z,60.60
2018-06-19T15:27:33.929Z,62.90
2018-06-19T15:30:02.211Z,61.80
2018-06-19T15:32:30.483Z,61.70
2018-06-19T15:34:58.921Z,63.10
2018-06-19T15:37:27.113Z,64.60
2018-06-19T15:39:55.405Z,63.50
2018-06-19T15:42:23.624Z,64.20
2018-06-19T15:44:51.857Z,64.10
2018-06-19T15:47:20.097Z,63.60
2018-06-19T15:49:48.463Z,63.70
2018-06-19T15:52:16.784Z,64.70
2018-06-19T15:54:45.010Z,64.10
2018-06-19T15:57:13.273Z,64.80
2018-06-19T15:59:41.501Z,65.20
2018-06-19T16:02:09.848Z,64.80
2018-06-19T16:04:38.190Z,66.50
2018-06-19T16:07:06.421Z,66.80
2018-06-19T16:09:34.668Z,66.60
2018-06-19T16:14:30.957Z,66.80
2018-06-19T16:16:59.172Z,67.20
2018-06-19T16:19:27.437Z,66.60
2018-06-19T16:21:55.713Z,66.60
2018-06-19T16:24:23.911Z,66.00
2018-06-19T16:26:52.713Z,64.30
2018-06-19T16:29:21.025Z,62.60
2018-06-19T16:31:49.378Z,64.50
2018-06-19T16:34:17.605Z,64.40
2018-06-19T16:36:45.869Z,65.60
2018-06-19T16:39:14.133Z,65.30
2018-06-19T16:41:42.389Z,65.70
2018-06-19T16:44:10.634Z,65.50
2018-06-19T16:46:38.894Z,66.30
2018-06-19T16:49:07.167Z,64.60
2018-06-19T16:51:35.449Z,64.90
2018-06-19T16:54:03.777Z,65.40
2018-06-19T16:56:32.095Z,63.90
2018-06-19T16:59:00.313Z,65.20
2018-06-19T17:01:28.600Z,64.70
2018-06-19T17:03:56.848Z,63.40
2018-06-19T17:06:25.093Z,64.40
2018-06-19T17:08:53.779Z,64.70
2018-06-19T17:11:22.030Z,66.00
2018-06-19T17:13:50.321Z,65.50
2018-06-19T17:16:18.555Z,66.00
2018-06-19T17:18:46.947Z,65.30
2018-06-19T17:21:15.266Z,64.50
2018-06-19T17:23:44.736Z,64.50
2018-06-19T17:26:12.993Z,66.30
2018-06-19T17:28:41.221Z,65.90
2018-06-19T17:31:09.516Z,66.10
2018-06-19T17:33:37.751Z,67.00
2018-06-19T17:36:06.032Z,67.00
2018-06-19T17:38:35.718Z,67.30
2018-06-19T17:41:03.983Z,66.80
2018-06-19T17:43:32.170Z,67.10
2018-06-19T17:46:00.381Z,66.50
2018-06-19T17:48:28.676Z,67.60
2018-06-19T17:50:57.012Z,67.50
2018-06-19T17:53:25.261Z,67.90
2018-06-19T17:55:53.521Z,68.30
2018-06-19T17:58:21.761Z,68.50
2018-06-19T18:00:49.997Z,68.90
2018-06-19T18:03:18.250Z,68.90
2018-06-19T18:05:46.460Z,69.50
2018-06-19T18:08:14.706Z,69.00
2018-06-19T18:10:43.004Z,69.40
2018-06-19T18:13:11.232Z,69.80
2018-06-19T18:15:39.494Z,69.40
2018-06-19T18:18:07.753Z,69.30
2018-06-19T18:20:36.002Z,70.20
2018-06-19T18:23:04.835Z,70.30
2018-06-19T18:25:33.207Z,70.60
2018-06-19T18:28:01.543Z,71.10
2018-06-19T18:30:29.815Z,71.10
2018-06-19T18:32:58.141Z,71.30
2018-06-19T18:35:26.967Z,71.60
2018-06-19T18:37:55.590Z,71.80
2018-06-19T18:40:23.874Z,71.80
2018-06-19T18:42:52.176Z,72.00
2018-06-19T18:45:20.452Z,72.40
2018-06-19T18:47:49.083Z,72.70
2018-06-19T18:52:45.313Z,73.10
2018-06-19T18:55:13.545Z,73.30
2018-06-19T18:57:41.784Z,73.90
2018-06-19T19:00:10.609Z,74.50
2018-06-19T19:02:39.771Z,74.60
2018-06-19T19:05:08.998Z,74.40
2018-06-19T19:07:37.434Z,74.70
2018-06-19T19:10:11.073Z,75.10
2018-06-19T19:12:39.382Z,74.80
2018-06-19T19:15:13.225Z,75.00
2018-06-19T19:17:46.990Z,74.70
2018-06-19T19:20:16.597Z,75.10
2018-06-19T19:22:45.934Z,75.00
2018-06-19T19:25:15.063Z,75.10
2018-06-19T19:27:48.690Z,75.00
2018-06-19T19:30:16.913Z,74.90
2018-06-19T19:32:45.267Z,75.00
2018-06-19T19:35:13.494Z,75.30
2018-06-19T19:37:47.314Z,75.30
2018-06-19T19:42:44.769Z,75.60
2018-06-19T19:45:13.078Z,75.30
2018-06-19T19:47:47.635Z,75.20
2018-06-19T19:50:16.857Z,75.70
2018-06-19T19:52:46.591Z,76.10
2018-06-19T19:55:14.877Z,75.90
2018-06-19T19:57:48.493Z,76.10
2018-06-19T20:00:22.605Z,76.30
2018-06-19T20:02:51.498Z,76.40
2018-06-19T20:05:19.738Z,76.40
2018-06-19T20:07:47.946Z,76.70
2018-06-19T20:10:17.246Z,76.90
2018-06-19T20:12:46.860Z,77.10
2018-06-19T20:15:15.114Z,77.20
2018-06-19T20:17:43.381Z,77.20
2018-06-19T20:20:11.808Z,77.70
2018-06-19T20:22:40.918Z,78.00
2018-06-19T20:25:09.802Z,78.40
2018-06-19T20:27:38.094Z,78.00
2018-06-19T20:30:07.400Z,77.90
2018-06-19T20:32:35.668Z,78.20
2018-06-19T20:35:03.978Z,78.30
2018-06-19T20:37:32.340Z,79.00
2018-06-19T20:40:00.837Z,79.30
2018-06-19T20:42:29.099Z,79.20
2018-06-19T20:44:57.838Z,79.30
2018-06-19T20:47:26.719Z,79.30
2018-06-19T20:49:55.051Z,79.20
2018-06-19T20:52:23.285Z,79.10
2018-06-19T20:54:51.561Z,79.20
2018-06-19T20:57:19.796Z,79.50
2018-06-19T20:59:48.228Z,79.70
2018-06-19T21:02:16.783Z,80.30
2018-06-19T21:04:45.313Z,80.20
2018-06-19T21:07:13.700Z,80.20
2018-06-19T21:09:42.279Z,80.70
2018-06-19T21:12:10.649Z,81.00
2018-06-19T21:14:38.865Z,81.20
2018-06-19T21:17:07.482Z,81.00
2018-06-19T21:19:35.942Z,81.20
2018-06-19T21:22:04.338Z,82.10
2018-06-19T21:24:32.719Z,83.00
2018-06-19T21:27:01.009Z,83.20
2018-06-19T21:29:29.261Z,83.70
2018-06-19T21:34:25.452Z,83.50
2018-06-19T21:36:53.673Z,84.20
2018-06-19T21:39:21.992Z,84.30
2018-06-19T21:41:50.428Z,84.00
2018-06-19T21:44:18.656Z,83.80
2018-06-19T21:46:47.473Z,83.50
2018-06-19T21:49:15.728Z,83.20
2018-06-19T21:51:43.949Z,83.00
2018-06-19T21:54:12.177Z,82.60
2018-06-19T21:56:40.372Z,82.60
2018-06-19T21:59:08.634Z,82.20
2018-06-19T22:01:36.809Z,82.30
2018-06-19T22:04:05.071Z,82.20
2018-06-19T22:06:33.278Z,82.40
2018-06-19T22:09:01.541Z,82.30
2018-06-19T22:11:29.777Z,82.20
2018-06-19T22:13:58.028Z,82.00
2018-06-19T22:16:26.280Z,82.30
2018-06-19T22:18:54.500Z,82.80
2018-06-19T22:21:22.702Z,83.00
2018-06-19T22:23:50.889Z,83.30
2018-06-19T22:26:19.115Z,83.20
2018-06-19T22:28:47.302Z,83.10
2018-06-19T22:31:15.538Z,83.20
2018-06-19T22:33:44.010Z,83.30
2018-06-19T22:36:12.301Z,83.40
2018-06-19T22:41:08.500Z,83.20
2018-06-19T22:43:36.805Z,83.10
2018-06-19T22:46:05.038Z,83.10
2018-06-19T22:48:33.812Z,82.90
2018-06-19T22:51:02.532Z,83.10
2018-06-19T22:53:31.273Z,83.30
2018-06-19T22:56:00.001Z,82.80
2018-06-19T22:58:28.681Z,83.70
2018-06-19T23:00:57.400Z,83.50
2018-06-19T23:03:26.107Z,83.60
2018-06-19T23:05:54.837Z,84.00
2018-06-19T23:08:23.545Z,83.90
2018-06-19T23:10:52.237Z,84.20
2018-06-19T23:13:20.960Z,84.10
2018-06-19T23:15:49.919Z,83.80
2018-06-19T23:18:18.665Z,83.60
2018-06-19T23:20:46.850Z,82.90
2018-06-19T23:23:15.148Z,82.60
2018-06-19T23:25:43.734Z,82.60
2018-06-19T23:28:11.936Z,82.90
2018-06-19T23:30:40.165Z,83.20
2018-06-19T23:33:08.362Z,83.00
2018-06-19T23:35:36.619Z,83.20
2018-06-19T23:38:04.813Z,83.10
2018-06-19T23:40:33.043Z,83.20
2018-06-19T23:43:01.375Z,83.40
2018-06-19T23:45:29.586Z,84.20
2018-06-19T23:47:57.815Z,84.20
2018-06-19T23:50:26.052Z,84.20
2018-06-19T23:52:54.304Z,84.20
2018-06-19T23:55:22.562Z,84.60
2018-06-19T23:57:50.814Z,84.80
